Atlantic - Newfoundland: Past 24 Hour Conditions

 

Miscou Island

09:00 AM AST 26 November 2014
This table is a summary of hourly weather conditions for the past 24 hours.
Date / Time
(AST)
Wind(knots) Conditions Visibility(km) Pressure(kPa) Air tempC) Relative humidity(%) Dew pointC)
26 November 2014
9:00 WSW 14 gust 20 N/A N/A 101.8 4 71 -1
8:00 WSW 16 gust 21 N/A N/A 101.7 4 72 -1
7:00 WSW 13 N/A N/A 101.6 3 83 1
6:00 W 14 gust 19 N/A N/A 101.4 4 78 0
5:00 WSW 19 gust 27 N/A N/A 101.3 5 68 -1
4:00 WSW 21 gust 26 N/A N/A 101.2 5 68 0
3:00 WSW 16 gust 21 N/A N/A 101.1 5 72 1
2:00 WSW 16 gust 21 N/A N/A 101.0 5 70 0
1:00 WSW 17 N/A N/A 100.9 5 69 0
0:00 WSW 17 gust 23 N/A N/A 100.8 5 67 0
25 November 2014
23:00 WSW 16 gust 21 N/A N/A 100.7 5 66 -1
22:00 WSW 17 gust 22 N/A N/A 100.7 5 68 0
21:00 WSW 15 N/A N/A 100.7 6 69 0
20:00 WSW 14 gust 19 N/A N/A 100.6 6 70 1
19:00 W 12 gust 17 N/A N/A 100.6 6 69 1
18:00 WSW 15 N/A N/A 100.6 6 74 2
17:00 WSW 13 gust 18 N/A N/A 100.5 6 75 2
16:00 WSW 19 N/A N/A 100.4 7 71 2
15:00 WSW 15 gust 20 N/A N/A 100.3 7 70 2
14:00 WSW 18 gust 26 N/A N/A 100.2 8 67 2
13:00 WSW 23 gust 30 N/A N/A 100.1 10 59 2
12:00 WSW 23 gust 34 N/A N/A 100.0 10 60 3
11:00 SW 18 gust 24 N/A N/A 100.0 11 76 7
10:00 SW 19 gust 26 N/A N/A 99.9 12 80 9
9:00 SW 15 gust 20 N/A N/A 99.9 11 86 9
 
Map of Atlantic - Newfoundland marine weather areas Southwestern Grand Banks - 44138 Banquereau - 44139 Tail of the Bank - 44140 Nickerson Bank - 44251 Northeast Burgeo Bank - 44255 Blanc-Sablon Airport Cap Whittle Chevery Natashquan Airport Heath Point Miscou Island Grand Étang Ingonish Beach North Mountain St.Paul Island J.A. Douglas McCurdy Sydney Airport Charlottetown Airport East Point North Cape Argentia Bonavista Burgeo Cape Race Corner Brook Daniel's Harbour Englee Ferolle Point La Scie Port aux Basques Rocky Harbour Sagona Island St. Anthony Airport St. John's Int'l Airport St. Lawrence Stephenville Airport Twillingate Winterland Wreckhouse Cartwright Airport Mary's Harbour Grates Cove Pool's Island Marticot Island Long Pond Îles de la Madeleine Airport
Legend: buoyBuoy land stationLand Station